sensor_id;sensor_type;location;lat;lon;timestamp;pressure;altitude;pressure_sealevel;temperature;humidity
43147;BME280;28752;48.266;7.402;2023-08-08T00:00:12;99612.28;;;16.81;63.14
43147;BME280;28752;48.266;7.402;2023-08-08T00:02:39;99622.66;;;16.76;63.38
43147;BME280;28752;48.266;7.402;2023-08-08T00:05:04;99624.97;;;16.79;63.60
43147;BME280;28752;48.266;7.402;2023-08-08T00:07:29;99613.72;;;16.83;63.12
43147;BME280;28752;48.266;7.402;2023-08-08T00:09:56;99619.09;;;16.83;63.51
43147;BME280;28752;48.266;7.402;2023-08-08T00:12:21;99618.63;;;16.80;63.63
43147;BME280;28752;48.266;7.402;2023-08-08T00:14:46;99611.16;;;16.75;63.75
43147;BME280;28752;48.266;7.402;2023-08-08T00:17:12;99612.53;;;16.71;64.10
43147;BME280;28752;48.266;7.402;2023-08-08T00:19:37;99610.00;;;16.93;63.51
43147;BME280;28752;48.266;7.402;2023-08-08T00:22:03;99604.66;;;16.93;63.62
43147;BME280;28752;48.266;7.402;2023-08-08T00:24:28;99601.84;;;16.86;63.13
43147;BME280;28752;48.266;7.402;2023-08-08T00:26:53;99609.38;;;16.67;63.84
43147;BME280;28752;48.266;7.402;2023-08-08T00:29:19;99609.38;;;16.67;63.43
43147;BME280;28752;48.266;7.402;2023-08-08T00:31:44;99610.94;;;16.62;63.85
43147;BME280;28752;48.266;7.402;2023-08-08T00:34:09;99606.53;;;16.31;65.42
43147;BME280;28752;48.266;7.402;2023-08-08T00:36:35;99604.91;;;16.22;65.31
43147;BME280;28752;48.266;7.402;2023-08-08T00:39:00;99600.84;;;16.26;65.27
43147;BME280;28752;48.266;7.402;2023-08-08T00:41:25;99607.59;;;16.22;65.55
43147;BME280;28752;48.266;7.402;2023-08-08T00:43:51;99603.78;;;16.16;65.73
43147;BME280;28752;48.266;7.402;2023-08-08T00:46:20;99603.00;;;16.07;66.16
43147;BME280;28752;48.266;7.402;2023-08-08T00:48:46;99604.34;;;16.03;66.07
43147;BME280;28752;48.266;7.402;2023-08-08T00:51:11;99600.75;;;15.96;66.61
43147;BME280;28752;48.266;7.402;2023-08-08T00:53:36;99604.47;;;15.87;67.06
43147;BME280;28752;48.266;7.402;2023-08-08T00:56:02;99603.81;;;15.85;66.59
43147;BME280;28752;48.266;7.402;2023-08-08T00:58:28;99603.34;;;15.81;67.00
43147;BME280;28752;48.266;7.402;2023-08-08T01:00:54;99600.31;;;15.76;67.22
43147;BME280;28752;48.266;7.402;2023-08-08T01:03:22;99602.50;;;15.72;67.05
43147;BME280;28752;48.266;7.402;2023-08-08T01:05:55;99598.88;;;15.65;67.21
43147;BME280;28752;48.266;7.402;2023-08-08T01:08:27;99607.56;;;15.67;67.29
43147;BME280;28752;48.266;7.402;2023-08-08T01:10:55;99595.44;;;15.56;67.52
43147;BME280;28752;48.266;7.402;2023-08-08T01:13:23;99601.75;;;15.55;67.39
43147;BME280;28752;48.266;7.402;2023-08-08T01:15:50;99587.94;;;15.52;67.94
43147;BME280;28752;48.266;7.402;2023-08-08T01:18:16;99582.25;;;15.55;67.54
43147;BME280;28752;48.266;7.402;2023-08-08T01:20:42;99582.25;;;15.55;68.27
43147;BME280;28752;48.266;7.402;2023-08-08T01:25:37;99587.44;;;15.48;68.10
43147;BME280;28752;48.266;7.402;2023-08-08T01:28:03;99585.78;;;15.47;68.05
43147;BME280;28752;48.266;7.402;2023-08-08T01:30:29;99589.81;;;15.43;68.36
43147;BME280;28752;48.266;7.402;2023-08-08T01:32:54;99586.34;;;15.34;68.49
43147;BME280;28752;48.266;7.402;2023-08-08T01:35:19;99589.47;;;15.38;68.96
43147;BME280;28752;48.266;7.402;2023-08-08T01:37:52;99598.00;;;15.41;68.85
43147;BME280;28752;48.266;7.402;2023-08-08T01:40:20;99592.66;;;15.41;69.07
43147;BME280;28752;48.266;7.402;2023-08-08T01:42:47;99599.00;;;15.40;68.90
43147;BME280;28752;48.266;7.402;2023-08-08T01:45:15;99599.00;;;15.40;68.45
43147;BME280;28752;48.266;7.402;2023-08-08T01:47:40;99603.69;;;15.38;68.60
43147;BME280;28752;48.266;7.402;2023-08-08T01:50:06;99594.88;;;15.30;68.67
43147;BME280;28752;48.266;7.402;2023-08-08T01:52:32;99595.22;;;15.26;68.59
43147;BME280;28752;48.266;7.402;2023-08-08T01:54:58;99597.38;;;15.31;68.42
43147;BME280;28752;48.266;7.402;2023-08-08T01:57:23;99587.72;;;15.22;68.90
43147;BME280;28752;48.266;7.402;2023-08-08T01:59:48;99581.88;;;15.18;69.25
43147;BME280;28752;48.266;7.402;2023-08-08T02:02:15;99586.75;;;15.23;69.14
43147;BME280;28752;48.266;7.402;2023-08-08T02:04:42;99586.97;;;15.44;68.15
43147;BME280;28752;48.266;7.402;2023-08-08T02:07:07;99582.34;;;15.30;67.91
43147;BME280;28752;48.266;7.402;2023-08-08T02:09:33;99589.28;;;15.08;69.01
43147;BME280;28752;48.266;7.402;2023-08-08T02:11:58;99594.25;;;15.11;68.81
43147;BME280;28752;48.266;7.402;2023-08-08T02:14:23;99596.75;;;15.04;69.17
43147;BME280;28752;48.266;7.402;2023-08-08T02:16:48;99596.59;;;15.06;69.62
43147;BME280;28752;48.266;7.402;2023-08-08T02:19:14;99589.78;;;15.03;69.52
43147;BME280;28752;48.266;7.402;2023-08-08T02:21:40;99593.63;;;15.01;69.73
43147;BME280;28752;48.266;7.402;2023-08-08T02:24:05;99590.66;;;14.96;69.78
43147;BME280;28752;48.266;7.402;2023-08-08T02:26:31;99594.47;;;14.93;69.94
43147;BME280;28752;48.266;7.402;2023-08-08T02:28:56;99589.97;;;14.93;70.13
43147;BME280;28752;48.266;7.402;2023-08-08T02:31:21;99591.00;;;14.92;70.29
43147;BME280;28752;48.266;7.402;2023-08-08T02:33:50;99590.47;;;14.97;70.05
43147;BME280;28752;48.266;7.402;2023-08-08T02:36:17;99594.97;;;14.88;70.27
43147;BME280;28752;48.266;7.402;2023-08-08T02:38:42;99588.34;;;14.60;71.22
43147;BME280;28752;48.266;7.402;2023-08-08T02:41:07;99586.19;;;14.71;70.86
43147;BME280;28752;48.266;7.402;2023-08-08T02:43:33;99588.81;;;14.80;70.76
43147;BME280;28752;48.266;7.402;2023-08-08T02:45:58;99589.63;;;14.97;69.97
43147;BME280;28752;48.266;7.402;2023-08-08T02:48:23;99580.31;;;14.84;70.24
43147;BME280;28752;48.266;7.402;2023-08-08T02:50:49;99580.31;;;14.84;70.59
43147;BME280;28752;48.266;7.402;2023-08-08T02:53:14;99580.53;;;14.74;70.64
43147;BME280;28752;48.266;7.402;2023-08-08T02:55:39;99586.19;;;14.63;70.70
43147;BME280;28752;48.266;7.402;2023-08-08T02:58:04;99589.53;;;14.65;70.94
43147;BME280;28752;48.266;7.402;2023-08-08T03:00:30;99587.00;;;14.72;70.74
43147;BME280;28752;48.266;7.402;2023-08-08T03:02:56;99589.81;;;14.79;70.71
43147;BME280;28752;48.266;7.402;2023-08-08T03:05:21;99587.66;;;14.82;70.37
43147;BME280;28752;48.266;7.402;2023-08-08T03:07:47;99593.47;;;14.86;70.56
43147;BME280;28752;48.266;7.402;2023-08-08T03:10:12;99590.50;;;14.81;70.19
43147;BME280;28752;48.266;7.402;2023-08-08T03:12:38;99594.97;;;14.80;70.33
43147;BME280;28752;48.266;7.402;2023-08-08T03:15:03;99588.00;;;14.79;70.71
43147;BME280;28752;48.266;7.402;2023-08-08T03:17:29;99581.94;;;15.10;69.48
43147;BME280;28752;48.266;7.402;2023-08-08T03:19:54;99590.47;;;14.89;70.00
43147;BME280;28752;48.266;7.402;2023-08-08T03:22:20;99593.66;;;14.84;70.16
43147;BME280;28752;48.266;7.402;2023-08-08T03:24:45;99585.16;;;14.81;70.46
43147;BME280;28752;48.266;7.402;2023-08-08T03:27:10;99580.00;;;14.79;70.71
43147;BME280;28752;48.266;7.402;2023-08-08T03:29:36;99579.66;;;14.82;70.50
43147;BME280;28752;48.266;7.402;2023-08-08T03:32:02;99580.34;;;14.76;70.33
43147;BME280;28752;48.266;7.402;2023-08-08T03:34:29;99588.34;;;14.68;70.76
43147;BME280;28752;48.266;7.402;2023-08-08T03:36:54;99584.50;;;14.70;70.59
43147;BME280;28752;48.266;7.402;2023-08-08T03:39:19;99589.69;;;14.72;70.94
43147;BME280;28752;48.266;7.402;2023-08-08T03:41:45;99585.00;;;14.74;71.20
43147;BME280;28752;48.266;7.402;2023-08-08T03:44:10;99582.50;;;14.72;71.29
43147;BME280;28752;48.266;7.402;2023-08-08T03:46:35;99583.34;;;14.73;71.31
43147;BME280;28752;48.266;7.402;2023-08-08T03:49:01;99588.19;;;14.78;70.98
43147;BME280;28752;48.266;7.402;2023-08-08T03:51:26;99581.84;;;14.70;71.18
43147;BME280;28752;48.266;7.402;2023-08-08T03:53:51;99585.50;;;14.94;70.38
43147;BME280;28752;48.266;7.402;2023-08-08T03:56:17;99570.94;;;15.05;70.01
43147;BME280;28752;48.266;7.402;2023-08-08T03:58:42;99582.00;;;14.77;70.96
43147;BME280;28752;48.266;7.402;2023-08-08T04:01:08;99585.16;;;14.81;70.99
43147;BME280;28752;48.266;7.402;2023-08-08T04:03:33;99586.47;;;14.85;71.12
43147;BME280;28752;48.266;7.402;2023-08-08T04:05:59;99580.97;;;14.86;70.69
43147;BME280;28752;48.266;7.402;2023-08-08T04:08:24;99582.34;;;14.82;70.63
43147;BME280;28752;48.266;7.402;2023-08-08T04:10:49;99587.84;;;14.64;71.24
43147;BME280;28752;48.266;7.402;2023-08-08T04:13:15;99582.03;;;14.69;71.35
43147;BME280;28752;48.266;7.402;2023-08-08T04:15:40;99593.16;;;14.72;71.34
43147;BME280;28752;48.266;7.402;2023-08-08T04:18:06;99590.00;;;14.77;70.89
43147;BME280;28752;48.266;7.402;2023-08-08T04:20:32;99589.31;;;14.83;70.51
43147;BME280;28752;48.266;7.402;2023-08-08T04:22:58;99599.50;;;14.80;70.50
43147;BME280;28752;48.266;7.402;2023-08-08T04:25:24;99596.00;;;14.71;70.65
43147;BME280;28752;48.266;7.402;2023-08-08T04:27:49;99598.50;;;14.81;70.39
43147;BME280;28752;48.266;7.402;2023-08-08T04:30:15;99598.00;;;14.77;70.62
43147;BME280;28752;48.266;7.402;2023-08-08T04:32:40;99587.50;;;14.84;70.53
43147;BME280;28752;48.266;7.402;2023-08-08T04:35:05;99591.81;;;14.85;70.84
43147;BME280;28752;48.266;7.402;2023-08-08T04:37:31;99590.66;;;14.87;70.75
43147;BME280;28752;48.266;7.402;2023-08-08T04:39:56;99591.31;;;14.89;70.80
43147;BME280;28752;48.266;7.402;2023-08-08T04:42:21;99597.31;;;14.91;70.85
43147;BME280;28752;48.266;7.402;2023-08-08T04:44:47;99590.81;;;14.94;70.72
43147;BME280;28752;48.266;7.402;2023-08-08T04:47:12;99595.13;;;14.95;70.73
43147;BME280;28752;48.266;7.402;2023-08-08T04:49:37;99597.44;;;15.06;70.53
43147;BME280;28752;48.266;7.402;2023-08-08T04:52:03;99600.13;;;14.98;70.77
43147;BME280;28752;48.266;7.402;2023-08-08T04:54:29;99614.47;;;14.89;70.97
43147;BME280;28752;48.266;7.402;2023-08-08T04:56:54;99606.91;;;15.17;70.24
43147;BME280;28752;48.266;7.402;2023-08-08T04:59:19;99614.22;;;15.23;69.95
43147;BME280;28752;48.266;7.402;2023-08-08T05:01:45;99603.97;;;15.43;69.64
43147;BME280;28752;48.266;7.402;2023-08-08T05:04:10;99611.00;;;15.76;68.66
43147;BME280;28752;48.266;7.402;2023-08-08T05:06:35;99604.59;;;15.93;68.21
43147;BME280;28752;48.266;7.402;2023-08-08T05:09:01;99611.06;;;16.45;67.32
43147;BME280;28752;48.266;7.402;2023-08-08T05:11:26;99603.09;;;16.98;65.35
43147;BME280;28752;48.266;7.402;2023-08-08T05:13:52;99593.66;;;17.32;64.58
43147;BME280;28752;48.266;7.402;2023-08-08T05:16:18;99583.63;;;17.34;63.80
43147;BME280;28752;48.266;7.402;2023-08-08T05:18:43;99593.03;;;17.00;64.57
43147;BME280;28752;48.266;7.402;2023-08-08T05:21:11;99578.38;;;16.96;63.93
43147;BME280;28752;48.266;7.402;2023-08-08T05:23:37;99590.34;;;17.45;63.47
43147;BME280;28752;48.266;7.402;2023-08-08T05:26:02;99591.94;;;17.76;62.69
43147;BME280;28752;48.266;7.402;2023-08-08T05:28:28;99589.94;;;17.78;61.33
43147;BME280;28752;48.266;7.402;2023-08-08T05:30:54;99585.84;;;17.82;61.59
43147;BME280;28752;48.266;7.402;2023-08-08T05:33:19;99586.59;;;17.76;61.82
43147;BME280;28752;48.266;7.402;2023-08-08T05:35:45;99588.84;;;17.57;62.17
43147;BME280;28752;48.266;7.402;2023-08-08T05:38:10;99578.28;;;17.04;64.12
43147;BME280;28752;48.266;7.402;2023-08-08T05:40:35;99581.13;;;17.48;63.19
43147;BME280;28752;48.266;7.402;2023-08-08T05:43:02;99582.00;;;17.70;62.55
43147;BME280;28752;48.266;7.402;2023-08-08T05:45:27;99585.19;;;17.80;62.41
43147;BME280;28752;48.266;7.402;2023-08-08T05:47:53;99588.44;;;17.75;62.00
43147;BME280;28752;48.266;7.402;2023-08-08T05:50:19;99598.84;;;17.85;61.25
43147;BME280;28752;48.266;7.402;2023-08-08T05:52:45;99591.25;;;17.67;61.54
43147;BME280;28752;48.266;7.402;2023-08-08T05:55:10;99595.41;;;17.55;62.19
43147;BME280;28752;48.266;7.402;2023-08-08T05:57:35;99596.66;;;17.74;62.23
43147;BME280;28752;48.266;7.402;2023-08-08T06:00:01;99601.66;;;17.77;62.00
43147;BME280;28752;48.266;7.402;2023-08-08T06:02:26;99594.41;;;17.56;62.27
43147;BME280;28752;48.266;7.402;2023-08-08T06:04:52;99611.50;;;17.91;61.93
43147;BME280;28752;48.266;7.402;2023-08-08T06:07:17;99605.88;;;18.23;61.65
43147;BME280;28752;48.266;7.402;2023-08-08T06:09:42;99604.88;;;18.74;60.52
43147;BME280;28752;48.266;7.402;2023-08-08T06:12:08;99600.19;;;19.11;59.11
43147;BME280;28752;48.266;7.402;2023-08-08T06:14:34;99603.66;;;19.88;56.28
43147;BME280;28752;48.266;7.402;2023-08-08T06:16:59;99600.63;;;20.65;54.18
43147;BME280;28752;48.266;7.402;2023-08-08T06:19:25;99601.91;;;20.82;53.76
43147;BME280;28752;48.266;7.402;2023-08-08T06:21:50;99601.69;;;20.90;52.54
43147;BME280;28752;48.266;7.402;2023-08-08T06:24:15;99605.38;;;21.16;52.25
43147;BME280;28752;48.266;7.402;2023-08-08T06:26:41;99590.09;;;21.69;51.22
43147;BME280;28752;48.266;7.402;2023-08-08T06:29:06;99594.69;;;22.39;49.96
43147;BME280;28752;48.266;7.402;2023-08-08T06:31:31;99597.44;;;22.82;49.33
43147;BME280;28752;48.266;7.402;2023-08-08T06:33:57;99597.53;;;24.29;46.55
43147;BME280;28752;48.266;7.402;2023-08-08T06:36:22;99587.81;;;25.75;43.52
43147;BME280;28752;48.266;7.402;2023-08-08T06:38:47;99589.50;;;25.93;42.42
43147;BME280;28752;48.266;7.402;2023-08-08T06:41:13;99603.25;;;25.75;42.07
43147;BME280;28752;48.266;7.402;2023-08-08T06:43:39;99609.03;;;25.78;42.16
43147;BME280;28752;48.266;7.402;2023-08-08T06:46:04;99612.72;;;26.81;40.82
43147;BME280;28752;48.266;7.402;2023-08-08T06:48:30;99602.16;;;27.62;39.03
43147;BME280;28752;48.266;7.402;2023-08-08T06:50:55;99608.06;;;28.04;38.16
43147;BME280;28752;48.266;7.402;2023-08-08T06:53:20;99605.41;;;29.80;36.01
43147;BME280;28752;48.266;7.402;2023-08-08T06:55:45;99609.03;;;29.85;35.11
43147;BME280;28752;48.266;7.402;2023-08-08T06:58:11;99606.06;;;30.64;33.77
43147;BME280;28752;48.266;7.402;2023-08-08T07:00:36;99599.81;;;30.53;34.24
43147;BME280;28752;48.266;7.402;2023-08-08T07:03:01;99600.69;;;31.50;32.71
43147;BME280;28752;48.266;7.402;2023-08-08T07:05:26;99607.94;;;31.80;32.43
43147;BME280;28752;48.266;7.402;2023-08-08T07:07:52;99611.13;;;32.72;31.87
43147;BME280;28752;48.266;7.402;2023-08-08T07:10:18;99610.09;;;32.33;30.41
43147;BME280;28752;48.266;7.402;2023-08-08T07:12:44;99613.91;;;32.37;31.30
43147;BME280;28752;48.266;7.402;2023-08-08T07:15:10;99620.41;;;32.47;30.57
43147;BME280;28752;48.266;7.402;2023-08-08T07:17:35;99609.41;;;33.35;30.46
43147;BME280;28752;48.266;7.402;2023-08-08T07:20:01;99620.09;;;33.36;29.98
43147;BME280;28752;48.266;7.402;2023-08-08T07:22:26;99619.97;;;33.22;29.81
43147;BME280;28752;48.266;7.402;2023-08-08T07:24:52;99612.56;;;32.64;29.97
43147;BME280;28752;48.266;7.402;2023-08-08T07:27:17;99618.75;;;32.80;30.11
43147;BME280;28752;48.266;7.402;2023-08-08T07:29:43;99610.94;;;32.92;30.61
43147;BME280;28752;48.266;7.402;2023-08-08T07:32:08;99611.34;;;32.12;30.92
43147;BME280;28752;48.266;7.402;2023-08-08T07:34:34;99608.81;;;33.14;31.01
43147;BME280;28752;48.266;7.402;2023-08-08T07:36:59;99600.16;;;33.01;30.13
43147;BME280;28752;48.266;7.402;2023-08-08T07:39:25;99597.22;;;33.65;29.89
43147;BME280;28752;48.266;7.402;2023-08-08T07:41:51;99593.72;;;32.87;29.77
43147;BME280;28752;48.266;7.402;2023-08-08T07:44:16;99597.75;;;33.19;30.20
43147;BME280;28752;48.266;7.402;2023-08-08T07:46:41;99594.59;;;32.53;30.75
43147;BME280;28752;48.266;7.402;2023-08-08T07:49:07;99593.22;;;30.34;33.59
43147;BME280;28752;48.266;7.402;2023-08-08T07:51:34;99597.34;;;30.52;34.23
43147;BME280;28752;48.266;7.402;2023-08-08T07:53:59;99595.88;;;31.21;34.08
43147;BME280;28752;48.266;7.402;2023-08-08T07:56:25;99587.25;;;29.32;35.19
43147;BME280;28752;48.266;7.402;2023-08-08T07:58:50;99579.41;;;28.93;36.64
43147;BME280;28752;48.266;7.402;2023-08-08T08:01:16;99579.13;;;28.89;37.43
43147;BME280;28752;48.266;7.402;2023-08-08T08:03:41;99570.88;;;28.47;37.97
43147;BME280;28752;48.266;7.402;2023-08-08T08:06:07;99575.41;;;28.36;37.02
43147;BME280;28752;48.266;7.402;2023-08-08T08:08:32;99579.63;;;28.49;38.15
43147;BME280;28752;48.266;7.402;2023-08-08T08:10:57;99572.75;;;28.41;37.21
43147;BME280;28752;48.266;7.402;2023-08-08T08:13:23;99574.50;;;27.71;38.62
43147;BME280;28752;48.266;7.402;2023-08-08T08:15:48;99574.03;;;27.52;37.83
43147;BME280;28752;48.266;7.402;2023-08-08T08:18:14;99571.50;;;27.45;40.47
43147;BME280;28752;48.266;7.402;2023-08-08T08:20:42;99576.63;;;27.02;39.14
43147;BME280;28752;48.266;7.402;2023-08-08T08:23:07;99559.72;;;27.17;39.29
43147;BME280;28752;48.266;7.402;2023-08-08T08:25:32;99569.94;;;26.54;41.49
43147;BME280;28752;48.266;7.402;2023-08-08T08:27:58;99572.91;;;26.86;41.86
43147;BME280;28752;48.266;7.402;2023-08-08T08:30:23;99567.41;;;27.03;41.42
43147;BME280;28752;48.266;7.402;2023-08-08T08:32:51;99562.94;;;26.75;42.90
43147;BME280;28752;48.266;7.402;2023-08-08T08:35:17;99567.56;;;26.74;42.54
43147;BME280;28752;48.266;7.402;2023-08-08T08:37:42;99570.91;;;26.65;42.58
43147;BME280;28752;48.266;7.402;2023-08-08T08:40:08;99555.63;;;26.75;43.01
43147;BME280;28752;48.266;7.402;2023-08-08T08:42:34;99561.59;;;27.34;42.13
43147;BME280;28752;48.266;7.402;2023-08-08T08:45:01;99558.81;;;27.78;41.30
43147;BME280;28752;48.266;7.402;2023-08-08T08:47:29;99557.13;;;28.26;40.99
43147;BME280;28752;48.266;7.402;2023-08-08T08:49:56;99558.69;;;27.95;40.18
43147;BME280;28752;48.266;7.402;2023-08-08T08:52:22;99553.56;;;27.44;41.27
43147;BME280;28752;48.266;7.402;2023-08-08T08:54:48;99563.25;;;27.35;41.90
43147;BME280;28752;48.266;7.402;2023-08-08T08:57:14;99552.13;;;27.19;40.75
43147;BME280;28752;48.266;7.402;2023-08-08T08:59:39;99553.13;;;27.13;42.23
43147;BME280;28752;48.266;7.402;2023-08-08T09:02:04;99547.06;;;27.99;41.32
43147;BME280;28752;48.266;7.402;2023-08-08T09:04:32;99541.59;;;28.27;40.39
43147;BME280;28752;48.266;7.402;2023-08-08T09:06:58;99536.28;;;27.82;40.41
43147;BME280;28752;48.266;7.402;2023-08-08T09:09:24;99540.03;;;28.68;39.52
43147;BME280;28752;48.266;7.402;2023-08-08T09:11:51;99542.31;;;28.92;38.40
43147;BME280;28752;48.266;7.402;2023-08-08T09:14:24;99542.97;;;28.29;38.63
43147;BME280;28752;48.266;7.402;2023-08-08T09:16:51;99548.81;;;27.34;39.35
43147;BME280;28752;48.266;7.402;2023-08-08T09:19:21;99548.34;;;27.64;40.64
43147;BME280;28752;48.266;7.402;2023-08-08T09:21:47;99541.91;;;27.48;40.07
43147;BME280;28752;48.266;7.402;2023-08-08T09:24:13;99534.84;;;27.75;39.68
43147;BME280;28752;48.266;7.402;2023-08-08T09:26:39;99547.25;;;27.65;39.69
43147;BME280;28752;48.266;7.402;2023-08-08T09:29:05;99540.41;;;28.12;40.38
43147;BME280;28752;48.266;7.402;2023-08-08T09:31:31;99544.44;;;28.10;39.94
43147;BME280;28752;48.266;7.402;2023-08-08T09:33:58;99537.56;;;28.67;40.74
43147;BME280;28752;48.266;7.402;2023-08-08T09:36:23;99538.50;;;28.88;39.53
43147;BME280;28752;48.266;7.402;2023-08-08T09:38:49;99528.34;;;28.73;38.24
43147;BME280;28752;48.266;7.402;2023-08-08T09:41:14;99532.38;;;28.65;39.28
43147;BME280;28752;48.266;7.402;2023-08-08T09:43:42;99524.84;;;28.45;39.73
43147;BME280;28752;48.266;7.402;2023-08-08T09:46:08;99524.16;;;28.23;39.19
43147;BME280;28752;48.266;7.402;2023-08-08T09:48:33;99523.22;;;28.12;38.11
43147;BME280;28752;48.266;7.402;2023-08-08T09:50:59;99517.34;;;27.93;37.76
43147;BME280;28752;48.266;7.402;2023-08-08T09:53:27;99523.28;;;27.90;38.47
43147;BME280;28752;48.266;7.402;2023-08-08T09:55:54;99522.38;;;27.79;39.33
43147;BME280;28752;48.266;7.402;2023-08-08T09:58:21;99519.28;;;27.70;38.96
43147;BME280;28752;48.266;7.402;2023-08-08T10:00:49;99517.50;;;28.08;40.02
43147;BME280;28752;48.266;7.402;2023-08-08T10:03:18;99516.19;;;28.53;39.20
43147;BME280;28752;48.266;7.402;2023-08-08T10:05:44;99511.25;;;28.88;38.56
43147;BME280;28752;48.266;7.402;2023-08-08T10:08:10;99505.00;;;28.93;38.97
43147;BME280;28752;48.266;7.402;2023-08-08T10:10:36;99505.59;;;29.05;38.78
43147;BME280;28752;48.266;7.402;2023-08-08T10:13:02;99501.63;;;29.23;36.51
43147;BME280;28752;48.266;7.402;2023-08-08T10:15:28;99503.63;;;28.95;36.09
43147;BME280;28752;48.266;7.402;2023-08-08T10:17:53;99499.47;;;28.77;37.57
43147;BME280;28752;48.266;7.402;2023-08-08T10:20:20;99504.78;;;28.19;37.82
43147;BME280;28752;48.266;7.402;2023-08-08T10:22:46;99500.75;;;28.27;37.66
43147;BME280;28752;48.266;7.402;2023-08-08T10:25:25;99502.31;;;27.85;37.05
43147;BME280;28752;48.266;7.402;2023-08-08T10:28:07;99506.41;;;27.33;37.66
43147;BME280;28752;48.266;7.402;2023-08-08T10:31:02;99501.84;;;27.66;38.84
43147;BME280;28752;48.266;7.402;2023-08-08T10:33:40;99507.91;;;27.73;38.29
43147;BME280;28752;48.266;7.402;2023-08-08T10:36:07;99511.03;;;27.87;37.24
43147;BME280;28752;48.266;7.402;2023-08-08T10:38:43;99495.22;;;28.16;36.79
43147;BME280;28752;48.266;7.402;2023-08-08T10:41:11;99492.44;;;28.06;36.63
43147;BME280;28752;48.266;7.402;2023-08-08T10:43:37;99493.97;;;28.29;36.62
43147;BME280;28752;48.266;7.402;2023-08-08T10:46:03;99493.38;;;27.90;36.80
43147;BME280;28752;48.266;7.402;2023-08-08T10:48:29;99492.91;;;27.98;37.22
43147;BME280;28752;48.266;7.402;2023-08-08T10:50:57;99502.81;;;28.09;38.34
43147;BME280;28752;48.266;7.402;2023-08-08T10:53:25;99495.44;;;27.77;35.55
43147;BME280;28752;48.266;7.402;2023-08-08T10:55:59;99492.84;;;27.60;35.35
43147;BME280;28752;48.266;7.402;2023-08-08T10:58:35;99492.72;;;27.50;34.26
43147;BME280;28752;48.266;7.402;2023-08-08T11:01:01;99489.00;;;27.61;37.74
43147;BME280;28752;48.266;7.402;2023-08-08T11:03:26;99492.88;;;27.38;35.70
43147;BME280;28752;48.266;7.402;2023-08-08T11:05:52;99490.59;;;27.08;35.83
43147;BME280;28752;48.266;7.402;2023-08-08T11:08:18;99486.75;;;27.80;36.00
43147;BME280;28752;48.266;7.402;2023-08-08T11:10:43;99496.34;;;27.88;34.14
43147;BME280;28752;48.266;7.402;2023-08-08T11:13:09;99488.56;;;27.97;35.30
43147;BME280;28752;48.266;7.402;2023-08-08T11:15:36;99498.53;;;28.56;33.68
43147;BME280;28752;48.266;7.402;2023-08-08T11:18:02;99487.44;;;28.68;33.31
43147;BME280;28752;48.266;7.402;2023-08-08T11:20:32;99494.25;;;28.70;33.56
43147;BME280;28752;48.266;7.402;2023-08-08T11:22:58;99485.72;;;28.57;32.52
43147;BME280;28752;48.266;7.402;2023-08-08T11:25:27;99480.44;;;28.82;33.91
43147;BME280;28752;48.266;7.402;2023-08-08T11:27:54;99476.38;;;28.90;33.01
43147;BME280;28752;48.266;7.402;2023-08-08T11:30:21;99468.94;;;28.27;31.66
43147;BME280;28752;48.266;7.402;2023-08-08T11:32:50;99486.16;;;28.86;33.83
43147;BME280;28752;48.266;7.402;2023-08-08T11:35:17;99482.03;;;28.78;34.10
43147;BME280;28752;48.266;7.402;2023-08-08T11:37:45;99473.44;;;29.07;32.82
43147;BME280;28752;48.266;7.402;2023-08-08T11:40:12;99477.81;;;29.08;35.50
43147;BME280;28752;48.266;7.402;2023-08-08T11:42:38;99467.63;;;28.83;32.46
43147;BME280;28752;48.266;7.402;2023-08-08T11:45:04;99488.94;;;28.11;31.84
43147;BME280;28752;48.266;7.402;2023-08-08T11:47:29;99484.06;;;27.86;32.97
43147;BME280;28752;48.266;7.402;2023-08-08T11:50:00;99477.44;;;27.44;33.94
43147;BME280;28752;48.266;7.402;2023-08-08T11:52:27;99485.53;;;27.17;33.29
43147;BME280;28752;48.266;7.402;2023-08-08T11:54:53;99486.94;;;26.97;33.44
43147;BME280;28752;48.266;7.402;2023-08-08T11:57:18;99479.59;;;26.98;34.36
43147;BME280;28752;48.266;7.402;2023-08-08T11:59:43;99485.78;;;26.93;34.51
43147;BME280;28752;48.266;7.402;2023-08-08T12:02:09;99485.59;;;26.77;34.83
43147;BME280;28752;48.266;7.402;2023-08-08T12:04:35;99486.34;;;26.95;35.04
43147;BME280;28752;48.266;7.402;2023-08-08T12:07:03;99480.91;;;27.17;35.38
43147;BME280;28752;48.266;7.402;2023-08-08T12:09:31;99462.81;;;27.50;35.22
43147;BME280;28752;48.266;7.402;2023-08-08T12:12:02;99461.28;;;27.32;34.93
43147;BME280;28752;48.266;7.402;2023-08-08T12:14:27;99466.34;;;27.51;33.65
43147;BME280;28752;48.266;7.402;2023-08-08T12:16:54;99465.53;;;27.77;34.93
43147;BME280;28752;48.266;7.402;2023-08-08T12:19:23;99464.13;;;28.02;35.29
43147;BME280;28752;48.266;7.402;2023-08-08T12:21:50;99459.28;;;28.14;35.69
43147;BME280;28752;48.266;7.402;2023-08-08T12:24:17;99460.09;;;28.15;34.86
43147;BME280;28752;48.266;7.402;2023-08-08T12:26:42;99457.38;;;28.15;34.53
43147;BME280;28752;48.266;7.402;2023-08-08T12:29:08;99456.19;;;28.38;34.36
43147;BME280;28752;48.266;7.402;2023-08-08T12:31:33;99446.44;;;28.47;34.66
43147;BME280;28752;48.266;7.402;2023-08-08T12:33:59;99447.16;;;28.27;34.08
43147;BME280;28752;48.266;7.402;2023-08-08T12:36:25;99457.59;;;28.03;33.23
43147;BME280;28752;48.266;7.402;2023-08-08T12:38:50;99441.06;;;27.82;32.36
43147;BME280;28752;48.266;7.402;2023-08-08T12:41:16;99452.38;;;27.69;34.74
43147;BME280;28752;48.266;7.402;2023-08-08T12:43:41;99450.81;;;27.46;33.87
43147;BME280;28752;48.266;7.402;2023-08-08T12:46:06;99446.34;;;27.62;33.00
43147;BME280;28752;48.266;7.402;2023-08-08T12:48:32;99452.31;;;27.91;33.06
43147;BME280;28752;48.266;7.402;2023-08-08T12:50:57;99446.13;;;28.01;33.89
43147;BME280;28752;48.266;7.402;2023-08-08T12:53:22;99448.78;;;28.28;33.27
43147;BME280;28752;48.266;7.402;2023-08-08T12:55:47;99447.97;;;28.28;32.91